sensor_id;sensor_type;location;lat;lon;timestamp;pressure;altitude;pressure_sealevel;temperature
73937;BMP180;59249;59.736;30.568;2023-03-14T00:01:21;98566.00;;;-1.30
73937;BMP180;59249;59.736;30.568;2023-03-14T00:03:50;98550.00;;;-1.30
73937;BMP180;59249;59.736;30.568;2023-03-14T00:06:19;98546.00;;;-1.30
73937;BMP180;59249;59.736;30.568;2023-03-14T00:08:49;98545.00;;;-1.30
73937;BMP180;59249;59.736;30.568;2023-03-14T00:11:19;98539.00;;;-1.30
73937;BMP180;59249;59.736;30.568;2023-03-14T00:13:51;98511.00;;;-1.20
73937;BMP180;59249;59.736;30.568;2023-03-14T00:16:20;98506.00;;;-1.20
73937;BMP180;59249;59.736;30.568;2023-03-14T00:18:49;98499.00;;;-1.20
73937;BMP180;59249;59.736;30.568;2023-03-14T00:21:19;98495.00;;;-1.10
73937;BMP180;59249;59.736;30.568;2023-03-14T00:23:48;98477.00;;;-1.10
73937;BMP180;59249;59.736;30.568;2023-03-14T00:26:18;98458.00;;;-1.10
73937;BMP180;59249;59.736;30.568;2023-03-14T00:28:52;98462.00;;;-1.10
73937;BMP180;59249;59.736;30.568;2023-03-14T00:31:22;98465.00;;;-1.10
73937;BMP180;59249;59.736;30.568;2023-03-14T00:33:52;98467.00;;;-1.10
73937;BMP180;59249;59.736;30.568;2023-03-14T00:36:21;98463.00;;;-1.10
73937;BMP180;59249;59.736;30.568;2023-03-14T00:38:51;98453.00;;;-1.10
73937;BMP180;59249;59.736;30.568;2023-03-14T00:41:22;98427.00;;;-1.00
73937;BMP180;59249;59.736;30.568;2023-03-14T00:43:52;98419.00;;;-1.00
73937;BMP180;59249;59.736;30.568;2023-03-14T00:46:21;98407.00;;;-1.00
73937;BMP180;59249;59.736;30.568;2023-03-14T00:48:50;98399.00;;;-1.00
73937;BMP180;59249;59.736;30.568;2023-03-14T00:51:18;98390.00;;;-0.90
73937;BMP180;59249;59.736;30.568;2023-03-14T00:53:47;98370.00;;;-1.00
73937;BMP180;59249;59.736;30.568;2023-03-14T00:56:16;98362.00;;;-1.00
73937;BMP180;59249;59.736;30.568;2023-03-14T00:58:44;98370.00;;;-0.90
73937;BMP180;59249;59.736;30.568;2023-03-14T01:01:17;98377.00;;;-0.90
73937;BMP180;59249;59.736;30.568;2023-03-14T01:03:47;98376.00;;;-1.00
73937;BMP180;59249;59.736;30.568;2023-03-14T01:06:20;98357.00;;;-0.90
73937;BMP180;59249;59.736;30.568;2023-03-14T01:08:50;98363.00;;;-1.00
73937;BMP180;59249;59.736;30.568;2023-03-14T01:11:22;98353.00;;;-1.00
73937;BMP180;59249;59.736;30.568;2023-03-14T01:13:52;98356.00;;;-0.90
73937;BMP180;59249;59.736;30.568;2023-03-14T01:16:25;98333.00;;;-0.90
73937;BMP180;59249;59.736;30.568;2023-03-14T01:18:54;98339.00;;;-0.90
73937;BMP180;59249;59.736;30.568;2023-03-14T01:21:25;98311.00;;;-0.80
73937;BMP180;59249;59.736;30.568;2023-03-14T01:23:56;98323.00;;;-0.80
73937;BMP180;59249;59.736;30.568;2023-03-14T01:26:29;98305.00;;;-0.80
73937;BMP180;59249;59.736;30.568;2023-03-14T01:29:01;98304.00;;;-0.80
73937;BMP180;59249;59.736;30.568;2023-03-14T01:31:35;98303.00;;;-0.70
73937;BMP180;59249;59.736;30.568;2023-03-14T01:34:04;98283.00;;;-0.80
73937;BMP180;59249;59.736;30.568;2023-03-14T01:36:32;98289.00;;;-0.70
73937;BMP180;59249;59.736;30.568;2023-03-14T01:39:02;98293.00;;;-0.70
73937;BMP180;59249;59.736;30.568;2023-03-14T01:41:33;98282.00;;;-0.60
73937;BMP180;59249;59.736;30.568;2023-03-14T01:44:01;98269.00;;;-0.60
73937;BMP180;59249;59.736;30.568;2023-03-14T01:46:36;98266.00;;;-0.60
73937;BMP180;59249;59.736;30.568;2023-03-14T01:49:22;98268.00;;;-0.70
73937;BMP180;59249;59.736;30.568;2023-03-14T01:52:03;98253.00;;;-0.50
73937;BMP180;59249;59.736;30.568;2023-03-14T01:54:38;98251.00;;;-0.50
73937;BMP180;59249;59.736;30.568;2023-03-14T01:57:13;98240.00;;;-0.50
73937;BMP180;59249;59.736;30.568;2023-03-14T01:59:48;98248.00;;;-0.50
73937;BMP180;59249;59.736;30.568;2023-03-14T02:02:23;98237.00;;;-0.50
73937;BMP180;59249;59.736;30.568;2023-03-14T02:04:54;98240.00;;;-0.40
73937;BMP180;59249;59.736;30.568;2023-03-14T02:07:33;98222.00;;;-0.50
73937;BMP180;59249;59.736;30.568;2023-03-14T02:10:14;98217.00;;;-0.50
73937;BMP180;59249;59.736;30.568;2023-03-14T02:12:46;98217.00;;;-0.40
73937;BMP180;59249;59.736;30.568;2023-03-14T02:15:45;98198.00;;;-0.50
73937;BMP180;59249;59.736;30.568;2023-03-14T02:18:35;98204.00;;;-0.40
73937;BMP180;59249;59.736;30.568;2023-03-14T02:21:38;98200.00;;;-0.30
73937;BMP180;59249;59.736;30.568;2023-03-14T02:24:24;98185.00;;;-0.30
73937;BMP180;59249;59.736;30.568;2023-03-14T02:27:10;98186.00;;;-0.30
73937;BMP180;59249;59.736;30.568;2023-03-14T02:29:49;98182.00;;;-0.30
73937;BMP180;59249;59.736;30.568;2023-03-14T02:32:22;98179.00;;;-0.20
73937;BMP180;59249;59.736;30.568;2023-03-14T02:34:55;98169.00;;;-0.20
73937;BMP180;59249;59.736;30.568;2023-03-14T02:37:29;98171.00;;;-0.10
73937;BMP180;59249;59.736;30.568;2023-03-14T02:40:03;98169.00;;;-0.10
73937;BMP180;59249;59.736;30.568;2023-03-14T02:42:36;98180.00;;;0.00
73937;BMP180;59249;59.736;30.568;2023-03-14T02:45:33;98160.00;;;0.00
73937;BMP180;59249;59.736;30.568;2023-03-14T02:48:07;98152.00;;;0.00
73937;BMP180;59249;59.736;30.568;2023-03-14T02:50:41;98149.00;;;0.00
73937;BMP180;59249;59.736;30.568;2023-03-14T02:53:13;98146.00;;;0.00
73937;BMP180;59249;59.736;30.568;2023-03-14T02:55:46;98139.00;;;0.20
73937;BMP180;59249;59.736;30.568;2023-03-14T02:58:19;98145.00;;;0.10
73937;BMP180;59249;59.736;30.568;2023-03-14T03:00:53;98128.00;;;0.20
73937;BMP180;59249;59.736;30.568;2023-03-14T03:03:22;98140.00;;;0.30
73937;BMP180;59249;59.736;30.568;2023-03-14T03:05:53;98137.00;;;0.30
73937;BMP180;59249;59.736;30.568;2023-03-14T03:08:25;98142.00;;;0.30
73937;BMP180;59249;59.736;30.568;2023-03-14T03:10:57;98132.00;;;0.20
73937;BMP180;59249;59.736;30.568;2023-03-14T03:13:30;98132.00;;;0.30
73937;BMP180;59249;59.736;30.568;2023-03-14T03:16:01;98117.00;;;0.50
73937;BMP180;59249;59.736;30.568;2023-03-14T03:18:29;98123.00;;;0.40
73937;BMP180;59249;59.736;30.568;2023-03-14T03:21:00;98113.00;;;0.50
73937;BMP180;59249;59.736;30.568;2023-03-14T03:23:29;98114.00;;;0.40
73937;BMP180;59249;59.736;30.568;2023-03-14T03:25:58;98118.00;;;0.50
73937;BMP180;59249;59.736;30.568;2023-03-14T03:28:27;98114.00;;;0.50
73937;BMP180;59249;59.736;30.568;2023-03-14T03:30:59;98112.00;;;0.50
73937;BMP180;59249;59.736;30.568;2023-03-14T03:33:36;98113.00;;;0.60
73937;BMP180;59249;59.736;30.568;2023-03-14T03:36:06;98116.00;;;0.60
73937;BMP180;59249;59.736;30.568;2023-03-14T03:38:38;98109.00;;;0.60
73937;BMP180;59249;59.736;30.568;2023-03-14T03:41:08;98108.00;;;0.60
73937;BMP180;59249;59.736;30.568;2023-03-14T03:43:37;98104.00;;;0.80
73937;BMP180;59249;59.736;30.568;2023-03-14T03:46:10;98097.00;;;0.90
73937;BMP180;59249;59.736;30.568;2023-03-14T03:48:39;98097.00;;;0.90
73937;BMP180;59249;59.736;30.568;2023-03-14T03:51:11;98089.00;;;0.90
73937;BMP180;59249;59.736;30.568;2023-03-14T03:53:42;98097.00;;;0.90
73937;BMP180;59249;59.736;30.568;2023-03-14T03:56:13;98090.00;;;0.90
73937;BMP180;59249;59.736;30.568;2023-03-14T03:58:43;98080.00;;;0.90
73937;BMP180;59249;59.736;30.568;2023-03-14T04:01:13;98079.00;;;1.00
73937;BMP180;59249;59.736;30.568;2023-03-14T04:03:46;98071.00;;;1.00
73937;BMP180;59249;59.736;30.568;2023-03-14T04:06:15;98078.00;;;1.10
73937;BMP180;59249;59.736;30.568;2023-03-14T04:08:46;98080.00;;;1.10
73937;BMP180;59249;59.736;30.568;2023-03-14T04:11:28;98078.00;;;1.20
73937;BMP180;59249;59.736;30.568;2023-03-14T04:14:04;98066.00;;;1.30
73937;BMP180;59249;59.736;30.568;2023-03-14T04:16:34;98072.00;;;1.30
73937;BMP180;59249;59.736;30.568;2023-03-14T04:19:10;98067.00;;;1.30
73937;BMP180;59249;59.736;30.568;2023-03-14T04:21:38;98060.00;;;1.30
73937;BMP180;59249;59.736;30.568;2023-03-14T04:24:12;98052.00;;;1.40
73937;BMP180;59249;59.736;30.568;2023-03-14T04:26:44;98048.00;;;1.40
73937;BMP180;59249;59.736;30.568;2023-03-14T04:29:13;98048.00;;;1.50
73937;BMP180;59249;59.736;30.568;2023-03-14T04:31:45;98042.00;;;1.50
73937;BMP180;59249;59.736;30.568;2023-03-14T04:34:14;98044.00;;;1.60
73937;BMP180;59249;59.736;30.568;2023-03-14T04:36:48;98038.00;;;1.60
73937;BMP180;59249;59.736;30.568;2023-03-14T04:39:22;98035.00;;;1.70
73937;BMP180;59249;59.736;30.568;2023-03-14T04:42:04;98040.00;;;1.70
73937;BMP180;59249;59.736;30.568;2023-03-14T04:44:36;98029.00;;;1.70
73937;BMP180;59249;59.736;30.568;2023-03-14T04:47:07;98037.00;;;1.80
73937;BMP180;59249;59.736;30.568;2023-03-14T04:49:37;98026.00;;;1.80
73937;BMP180;59249;59.736;30.568;2023-03-14T04:52:07;98017.00;;;1.80
73937;BMP180;59249;59.736;30.568;2023-03-14T04:54:36;98016.00;;;1.80
73937;BMP180;59249;59.736;30.568;2023-03-14T04:57:05;98013.00;;;1.90
73937;BMP180;59249;59.736;30.568;2023-03-14T04:59:36;98014.00;;;2.00
73937;BMP180;59249;59.736;30.568;2023-03-14T05:02:33;98018.00;;;2.10
73937;BMP180;59249;59.736;30.568;2023-03-14T05:05:38;98013.00;;;2.10
73937;BMP180;59249;59.736;30.568;2023-03-14T05:08:26;98011.00;;;2.20
73937;BMP180;59249;59.736;30.568;2023-03-14T05:11:12;98008.00;;;2.20
73937;BMP180;59249;59.736;30.568;2023-03-14T05:14:05;97999.00;;;2.20
73937;BMP180;59249;59.736;30.568;2023-03-14T05:17:06;98000.00;;;2.30
73937;BMP180;59249;59.736;30.568;2023-03-14T05:19:55;98018.00;;;2.40
73937;BMP180;59249;59.736;30.568;2023-03-14T05:22:26;98012.00;;;2.40
73937;BMP180;59249;59.736;30.568;2023-03-14T05:25:14;98012.00;;;2.40
73937;BMP180;59249;59.736;30.568;2023-03-14T05:27:53;98017.00;;;2.50
73937;BMP180;59249;59.736;30.568;2023-03-14T05:30:38;98023.00;;;2.50
73937;BMP180;59249;59.736;30.568;2023-03-14T05:33:07;98012.00;;;2.60
73937;BMP180;59249;59.736;30.568;2023-03-14T05:35:44;98022.00;;;2.70
73937;BMP180;59249;59.736;30.568;2023-03-14T05:38:36;98012.00;;;2.70
73937;BMP180;59249;59.736;30.568;2023-03-14T05:41:24;98015.00;;;2.70
73937;BMP180;59249;59.736;30.568;2023-03-14T05:44:12;98027.00;;;2.90
73937;BMP180;59249;59.736;30.568;2023-03-14T05:47:07;98009.00;;;3.00
73937;BMP180;59249;59.736;30.568;2023-03-14T05:50:05;98013.00;;;2.90
73937;BMP180;59249;59.736;30.568;2023-03-14T05:52:54;98008.00;;;3.00
73937;BMP180;59249;59.736;30.568;2023-03-14T05:55:51;98022.00;;;3.00
73937;BMP180;59249;59.736;30.568;2023-03-14T05:58:53;98034.00;;;3.10
73937;BMP180;59249;59.736;30.568;2023-03-14T06:01:29;98024.00;;;3.20
73937;BMP180;59249;59.736;30.568;2023-03-14T06:04:09;98026.00;;;3.20
73937;BMP180;59249;59.736;30.568;2023-03-14T06:06:38;98025.00;;;3.30
73937;BMP180;59249;59.736;30.568;2023-03-14T06:09:11;98017.00;;;3.40
73937;BMP180;59249;59.736;30.568;2023-03-14T06:11:42;98018.00;;;3.50
73937;BMP180;59249;59.736;30.568;2023-03-14T06:14:11;98013.00;;;3.60
73937;BMP180;59249;59.736;30.568;2023-03-14T06:16:44;98012.00;;;3.70
73937;BMP180;59249;59.736;30.568;2023-03-14T06:19:18;98022.00;;;3.70
73937;BMP180;59249;59.736;30.568;2023-03-14T06:21:49;98025.00;;;3.80
73937;BMP180;59249;59.736;30.568;2023-03-14T06:24:27;98001.00;;;3.90
73937;BMP180;59249;59.736;30.568;2023-03-14T06:27:02;98006.00;;;3.90
73937;BMP180;59249;59.736;30.568;2023-03-14T06:29:33;98011.00;;;4.00
73937;BMP180;59249;59.736;30.568;2023-03-14T06:32:04;98009.00;;;4.10
73937;BMP180;59249;59.736;30.568;2023-03-14T06:34:37;98009.00;;;4.10
73937;BMP180;59249;59.736;30.568;2023-03-14T06:37:08;98017.00;;;4.20
73937;BMP180;59249;59.736;30.568;2023-03-14T06:39:38;98003.00;;;4.20
73937;BMP180;59249;59.736;30.568;2023-03-14T06:42:28;98023.00;;;4.20
73937;BMP180;59249;59.736;30.568;2023-03-14T06:45:00;98013.00;;;4.20
73937;BMP180;59249;59.736;30.568;2023-03-14T06:47:32;98039.00;;;4.20
73937;BMP180;59249;59.736;30.568;2023-03-14T06:50:10;98041.00;;;4.20
73937;BMP180;59249;59.736;30.568;2023-03-14T06:52:48;98046.00;;;4.40
73937;BMP180;59249;59.736;30.568;2023-03-14T06:55:34;98048.00;;;4.30
73937;BMP180;59249;59.736;30.568;2023-03-14T06:58:04;98066.00;;;4.40
73937;BMP180;59249;59.736;30.568;2023-03-14T07:00:41;98047.00;;;4.40
73937;BMP180;59249;59.736;30.568;2023-03-14T07:03:20;98054.00;;;4.40
73937;BMP180;59249;59.736;30.568;2023-03-14T07:05:54;98058.00;;;4.50
73937;BMP180;59249;59.736;30.568;2023-03-14T07:08:39;98073.00;;;4.60
73937;BMP180;59249;59.736;30.568;2023-03-14T07:11:18;98076.00;;;4.60
73937;BMP180;59249;59.736;30.568;2023-03-14T07:13:50;98077.00;;;4.70
73937;BMP180;59249;59.736;30.568;2023-03-14T07:16:24;98071.00;;;4.80
73937;BMP180;59249;59.736;30.568;2023-03-14T07:18:55;98074.00;;;4.70
73937;BMP180;59249;59.736;30.568;2023-03-14T07:21:24;98080.00;;;4.70
73937;BMP180;59249;59.736;30.568;2023-03-14T07:23:53;98087.00;;;4.70
73937;BMP180;59249;59.736;30.568;2023-03-14T07:26:28;98090.00;;;4.70
73937;BMP180;59249;59.736;30.568;2023-03-14T07:29:05;98093.00;;;4.70
73937;BMP180;59249;59.736;30.568;2023-03-14T07:31:35;98095.00;;;4.80
73937;BMP180;59249;59.736;30.568;2023-03-14T07:34:06;98098.00;;;4.70
73937;BMP180;59249;59.736;30.568;2023-03-14T07:36:38;98114.00;;;4.90
73937;BMP180;59249;59.736;30.568;2023-03-14T07:39:08;98099.00;;;5.00
73937;BMP180;59249;59.736;30.568;2023-03-14T07:41:46;98104.00;;;5.00
73937;BMP180;59249;59.736;30.568;2023-03-14T07:44:37;98100.00;;;5.10
73937;BMP180;59249;59.736;30.568;2023-03-14T07:47:12;98108.00;;;5.20
73937;BMP180;59249;59.736;30.568;2023-03-14T07:49:48;98099.00;;;5.30
73937;BMP180;59249;59.736;30.568;2023-03-14T07:52:16;98101.00;;;5.40
73937;BMP180;59249;59.736;30.568;2023-03-14T07:54:45;98094.00;;;5.40
73937;BMP180;59249;59.736;30.568;2023-03-14T07:57:19;98099.00;;;5.50
73937;BMP180;59249;59.736;30.568;2023-03-14T07:59:48;98114.00;;;5.50
73937;BMP180;59249;59.736;30.568;2023-03-14T08:02:16;98117.00;;;5.60
73937;BMP180;59249;59.736;30.568;2023-03-14T08:04:52;98121.00;;;5.70
73937;BMP180;59249;59.736;30.568;2023-03-14T08:07:22;98111.00;;;5.70
73937;BMP180;59249;59.736;30.568;2023-03-14T08:09:51;98109.00;;;5.70
73937;BMP180;59249;59.736;30.568;2023-03-14T08:12:21;98110.00;;;5.80
73937;BMP180;59249;59.736;30.568;2023-03-14T08:14:50;98111.00;;;6.00
73937;BMP180;59249;59.736;30.568;2023-03-14T08:17:18;98104.00;;;6.00
73937;BMP180;59249;59.736;30.568;2023-03-14T08:19:48;98111.00;;;6.20
73937;BMP180;59249;59.736;30.568;2023-03-14T08:22:17;98111.00;;;6.30
73937;BMP180;59249;59.736;30.568;2023-03-14T08:24:46;98108.00;;;6.30
73937;BMP180;59249;59.736;30.568;2023-03-14T08:27:14;98114.00;;;6.30
73937;BMP180;59249;59.736;30.568;2023-03-14T08:29:44;98114.00;;;6.40
73937;BMP180;59249;59.736;30.568;2023-03-14T08:32:13;98107.00;;;6.50
73937;BMP180;59249;59.736;30.568;2023-03-14T08:34:42;98111.00;;;6.70
73937;BMP180;59249;59.736;30.568;2023-03-14T08:37:11;98106.00;;;6.70
73937;BMP180;59249;59.736;30.568;2023-03-14T08:39:52;98113.00;;;6.90
73937;BMP180;59249;59.736;30.568;2023-03-14T08:42:23;98134.00;;;6.90
73937;BMP180;59249;59.736;30.568;2023-03-14T08:44:53;98133.00;;;7.00
73937;BMP180;59249;59.736;30.568;2023-03-14T08:47:22;98123.00;;;7.00
73937;BMP180;59249;59.736;30.568;2023-03-14T08:49:52;98127.00;;;7.00
73937;BMP180;59249;59.736;30.568;2023-03-14T08:52:21;98134.00;;;7.00
73937;BMP180;59249;59.736;30.568;2023-03-14T08:54:50;98143.00;;;7.10
73937;BMP180;59249;59.736;30.568;2023-03-14T08:57:20;98141.00;;;7.10
73937;BMP180;59249;59.736;30.568;2023-03-14T08:59:50;98151.00;;;7.20
73937;BMP180;59249;59.736;30.568;2023-03-14T09:02:25;98155.00;;;7.20
73937;BMP180;59249;59.736;30.568;2023-03-14T09:04:56;98163.00;;;7.20
73937;BMP180;59249;59.736;30.568;2023-03-14T09:07:27;98169.00;;;7.30
73937;BMP180;59249;59.736;30.568;2023-03-14T09:09:57;98168.00;;;7.30
73937;BMP180;59249;59.736;30.568;2023-03-14T09:12:26;98171.00;;;7.40
73937;BMP180;59249;59.736;30.568;2023-03-14T09:14:55;98175.00;;;7.50
73937;BMP180;59249;59.736;30.568;2023-03-14T09:17:30;98178.00;;;7.40
73937;BMP180;59249;59.736;30.568;2023-03-14T09:19:59;98184.00;;;7.40
73937;BMP180;59249;59.736;30.568;2023-03-14T09:22:33;98192.00;;;7.50
73937;BMP180;59249;59.736;30.568;2023-03-14T09:25:05;98178.00;;;7.30
73937;BMP180;59249;59.736;30.568;2023-03-14T09:27:39;98197.00;;;7.30
73937;BMP180;59249;59.736;30.568;2023-03-14T09:30:14;98193.00;;;7.40
73937;BMP180;59249;59.736;30.568;2023-03-14T09:32:45;98205.00;;;7.40
73937;BMP180;59249;59.736;30.568;2023-03-14T09:35:17;98197.00;;;7.50
73937;BMP180;59249;59.736;30.568;2023-03-14T09:37:51;98208.00;;;7.50
73937;BMP180;59249;59.736;30.568;2023-03-14T09:40:21;98197.00;;;7.50
73937;BMP180;59249;59.736;30.568;2023-03-14T09:42:59;98206.00;;;7.60
73937;BMP180;59249;59.736;30.568;2023-03-14T09:45:34;98202.00;;;7.80
73937;BMP180;59249;59.736;30.568;2023-03-14T09:48:12;98211.00;;;8.00
73937;BMP180;59249;59.736;30.568;2023-03-14T09:50:47;98204.00;;;7.90
73937;BMP180;59249;59.736;30.568;2023-03-14T09:53:24;98210.00;;;8.10
73937;BMP180;59249;59.736;30.568;2023-03-14T09:55:57;98208.00;;;8.20
73937;BMP180;59249;59.736;30.568;2023-03-14T09:58:29;98205.00;;;8.30
73937;BMP180;59249;59.736;30.568;2023-03-14T10:00:59;98219.00;;;8.50
73937;BMP180;59249;59.736;30.568;2023-03-14T10:03:38;98230.00;;;8.60
73937;BMP180;59249;59.736;30.568;2023-03-14T10:06:12;98226.00;;;8.70
73937;BMP180;59249;59.736;30.568;2023-03-14T10:08:44;98217.00;;;8.90
73937;BMP180;59249;59.736;30.568;2023-03-14T10:11:20;98218.00;;;8.90
73937;BMP180;59249;59.736;30.568;2023-03-14T10:14:07;98229.00;;;8.80
73937;BMP180;59249;59.736;30.568;2023-03-14T10:16:47;98224.00;;;8.90
73937;BMP180;59249;59.736;30.568;2023-03-14T10:19:18;98236.00;;;8.90
73937;BMP180;59249;59.736;30.568;2023-03-14T10:21:52;98237.00;;;8.90
73937;BMP180;59249;59.736;30.568;2023-03-14T10:24:26;98240.00;;;8.80
73937;BMP180;59249;59.736;30.568;2023-03-14T10:26:59;98236.00;;;8.80
73937;BMP180;59249;59.736;30.568;2023-03-14T10:29:31;98253.00;;;8.90
73937;BMP180;59249;59.736;30.568;2023-03-14T10:32:03;98259.00;;;8.70
73937;BMP180;59249;59.736;30.568;2023-03-14T10:34:37;98261.00;;;8.70
73937;BMP180;59249;59.736;30.568;2023-03-14T10:37:16;98251.00;;;8.70
73937;BMP180;59249;59.736;30.568;2023-03-14T10:40:12;98252.00;;;8.80
73937;BMP180;59249;59.736;30.568;2023-03-14T10:42:43;98252.00;;;8.80
73937;BMP180;59249;59.736;30.568;2023-03-14T10:45:36;98245.00;;;8.90
73937;BMP180;59249;59.736;30.568;2023-03-14T10:48:23;98258.00;;;8.80
73937;BMP180;59249;59.736;30.568;2023-03-14T10:51:06;98267.00;;;8.80
73937;BMP180;59249;59.736;30.568;2023-03-14T10:53:41;98266.00;;;8.90
73937;BMP180;59249;59.736;30.568;2023-03-14T10:56:13;98271.00;;;9.00
73937;BMP180;59249;59.736;30.568;2023-03-14T10:58:46;98266.00;;;9.10
73937;BMP180;59249;59.736;30.568;2023-03-14T11:01:28;98262.00;;;9.20
73937;BMP180;59249;59.736;30.568;2023-03-14T11:04:25;98279.00;;;9.10
73937;BMP180;59249;59.736;30.568;2023-03-14T11:07:10;98273.00;;;9.10
73937;BMP180;59249;59.736;30.568;2023-03-14T11:09:50;98268.00;;;9.10
73937;BMP180;59249;59.736;30.568;2023-03-14T11:12:41;98284.00;;;9.00
73937;BMP180;59249;59.736;30.568;2023-03-14T11:15:22;98289.00;;;9.00
73937;BMP180;59249;59.736;30.568;2023-03-14T11:18:15;98289.00;;;8.90
73937;BMP180;59249;59.736;30.568;2023-03-14T11:21:01;98290.00;;;8.80
73937;BMP180;59249;59.736;30.568;2023-03-14T11:23:43;98285.00;;;8.80
73937;BMP180;59249;59.736;30.568;2023-03-14T11:26:31;98298.00;;;8.70
73937;BMP180;59249;59.736;30.568;2023-03-14T11:29:12;98295.00;;;8.80
73937;BMP180;59249;59.736;30.568;2023-03-14T11:31:49;98296.00;;;8.70
73937;BMP180;59249;59.736;30.568;2023-03-14T11:34:28;98296.00;;;8.70
73937;BMP180;59249;59.736;30.568;2023-03-14T11:37:12;98303.00;;;8.70
73937;BMP180;59249;59.736;30.568;2023-03-14T11:39:52;98296.00;;;8.70
73937;BMP180;59249;59.736;30.568;2023-03-14T11:42:29;98303.00;;;8.70
73937;BMP180;59249;59.736;30.568;2023-03-14T11:45:01;98290.00;;;8.50
73937;BMP180;59249;59.736;30.568;2023-03-14T11:47:34;98304.00;;;8.40
73937;BMP180;59249;59.736;30.568;2023-03-14T11:50:14;98317.00;;;8.50
73937;BMP180;59249;59.736;30.568;2023-03-14T11:52:48;98311.00;;;8.40
73937;BMP180;59249;59.736;30.568;2023-03-14T11:55:25;98313.00;;;8.40
73937;BMP180;59249;59.736;30.568;2023-03-14T11:58:01;98324.00;;;8.30
73937;BMP180;59249;59.736;30.568;2023-03-14T12:00:38;98337.00;;;8.30
73937;BMP180;59249;59.736;30.568;2023-03-14T12:03:14;98335.00;;;8.30
73937;BMP180;59249;59.736;30.568;2023-03-14T12:06:00;98340.00;;;8.20
73937;BMP180;59249;59.736;30.568;2023-03-14T12:08:42;98344.00;;;8.20
73937;BMP180;59249;59.736;30.568;2023-03-14T12:11:30;98347.00;;;8.20
73937;BMP180;59249;59.736;30.568;2023-03-14T12:14:03;98350.00;;;8.20
73937;BMP180;59249;59.736;30.568;2023-03-14T12:16:47;98357.00;;;8.10
73937;BMP180;59249;59.736;30.568;2023-03-14T12:19:37;98356.00;;;8.10
73937;BMP180;59249;59.736;30.568;2023-03-14T12:22:23;98361.00;;;7.90
73937;BMP180;59249;59.736;30.568;2023-03-14T12:25:01;98359.00;;;8.00
73937;BMP180;59249;59.736;30.568;2023-03-14T12:27:49;98367.00;;;7.90
73937;BMP180;59249;59.736;30.568;2023-03-14T12:30:45;98362.00;;;7.90
73937;BMP180;59249;59.736;30.568;2023-03-14T12:33:32;98365.00;;;7.80
73937;BMP180;59249;59.736;30.568;2023-03-14T12:39:31;98377.00;;;8.00
73937;BMP180;59249;59.736;30.568;2023-03-14T12:42:08;98374.00;;;7.90
73937;BMP180;59249;59.736;30.568;2023-03-14T12:44:48;98374.00;;;7.90
73937;BMP180;59249;59.736;30.568;2023-03-14T12:47:51;98379.00;;;7.90
73937;BMP180;59249;59.736;30.568;2023-03-14T12:50:26;98374.00;;;7.90
73937;BMP180;59249;59.736;30.568;2023-03-14T12:56:25;98382.00;;;7.80
73937;BMP180;59249;59.736;30.568;2023-03-14T12:59:18;98373.00;;;7.80
73937;BMP180;59249;59.736;30.568;2023-03-14T13:02:09;98382.00;;;7.90
73937;BMP180;59249;59.736;30.568;2023-03-14T13:04:49;98381.00;;;8.00
73937;BMP180;59249;59.736;30.568;2023-03-14T13:07:35;98391.00;;;8.00
73937;BMP180;59249;59.736;30.568;2023-03-14T13:10:20;98392.00;;;8.00
73937;BMP180;59249;59.736;30.568;2023-03-14T13:12:54;98397.00;;;8.10
73937;BMP180;59249;59.736;30.568;2023-03-14T13:15:28;98404.00;;;8.10
73937;BMP180;59249;59.736;30.568;2023-03-14T13:18:10;98406.00;;;8.10
73937;BMP180;59249;59.736;30.568;2023-03-14T13:20:45;98405.00;;;8.00
73937;BMP180;59249;59.736;30.568;2023-03-14T13:23:22;98410.00;;;8.10
73937;BMP180;59249;59.736;30.568;2023-03-14T13:25:52;98417.00;;;8.00
73937;BMP180;59249;59.736;30.568;2023-03-14T13:28:22;98417.00;;;8.00
73937;BMP180;59249;59.736;30.568;2023-03-14T13:30:55;98424.00;;;8.00
73937;BMP180;59249;59.736;30.568;2023-03-14T13:33:28;98420.00;;;8.10
73937;BMP180;59249;59.736;30.568;2023-03-14T13:36:00;98417.00;;;8.10
73937;BMP180;59249;59.736;30.568;2023-03-14T13:38:32;98420.00;;;8.10
73937;BMP180;59249;59.736;30.568;2023-03-14T13:41:05;98416.00;;;8.10
73937;BMP180;59249;59.736;30.568;2023-03-14T13:43:36;98423.00;;;8.10
73937;BMP180;59249;59.736;30.568;2023-03-14T13:46:13;98428.00;;;8.00
73937;BMP180;59249;59.736;30.568;2023-03-14T13:48:48;98434.00;;;8.10
73937;BMP180;59249;59.736;30.568;2023-03-14T13:51:19;98447.00;;;8.00
73937;BMP180;59249;59.736;30.568;2023-03-14T13:53:50;98437.00;;;8.10
73937;BMP180;59249;59.736;30.568;2023-03-14T13:56:21;98448.00;;;7.90
73937;BMP180;59249;59.736;30.568;2023-03-14T13:58:51;98453.00;;;8.00
73937;BMP180;59249;59.736;30.568;2023-03-14T14:01:23;98449.00;;;8.00
73937;BMP180;59249;59.736;30.568;2023-03-14T14:03:56;98449.00;;;8.00
73937;BMP180;59249;59.736;30.568;2023-03-14T14:06:29;98459.00;;;7.80
73937;BMP180;59249;59.736;30.568;2023-03-14T14:09:01;98457.00;;;7.90
73937;BMP180;59249;59.736;30.568;2023-03-14T14:11:41;98463.00;;;7.90
73937;BMP180;59249;59.736;30.568;2023-03-14T14:14:33;98473.00;;;7.80
73937;BMP180;59249;59.736;30.568;2023-03-14T14:17:10;98474.00;;;7.70
73937;BMP180;59249;59.736;30.568;2023-03-14T14:19:44;98475.00;;;7.70
73937;BMP180;59249;59.736;30.568;2023-03-14T14:22:14;98469.00;;;7.80
73937;BMP180;59249;59.736;30.568;2023-03-14T14:24:43;98457.00;;;7.70
73937;BMP180;59249;59.736;30.568;2023-03-14T14:27:14;98456.00;;;7.80
73937;BMP180;59249;59.736;30.568;2023-03-14T14:29:56;98452.00;;;7.80
73937;BMP180;59249;59.736;30.568;2023-03-14T14:32:26;98456.00;;;7.60
73937;BMP180;59249;59.736;30.568;2023-03-14T14:35:05;98457.00;;;7.80
73937;BMP180;59249;59.736;30.568;2023-03-14T14:37:42;98464.00;;;7.70
73937;BMP180;59249;59.736;30.568;2023-03-14T14:40:17;98475.00;;;7.70
73937;BMP180;59249;59.736;30.568;2023-03-14T14:42:49;98473.00;;;7.70
73937;BMP180;59249;59.736;30.568;2023-03-14T14:45:20;98483.00;;;7.70
73937;BMP180;59249;59.736;30.568;2023-03-14T14:47:51;98480.00;;;7.50
73937;BMP180;59249;59.736;30.568;2023-03-14T14:50:30;98474.00;;;7.50
73937;BMP180;59249;59.736;30.568;2023-03-14T14:53:02;98485.00;;;7.50
73937;BMP180;59249;59.736;30.568;2023-03-14T14:55:50;98479.00;;;7.50
73937;BMP180;59249;59.736;30.568;2023-03-14T14:58:23;98488.00;;;7.40
73937;BMP180;59249;59.736;30.568;2023-03-14T15:00:56;98491.00;;;7.40